Tiempo atmosférico en la estación meteorológica de Huesca Aeropuerto, Huesca (541 m.)



Fecha
DESCASC
Temp. máxima en grados centígrados (hora)
DESCASC
Temp. mínima en grados centígrados (hora)
DESCASC
Temp. media en grados centígrados
DESCASC
Racha de viento máxima en m/sg (hora)
DESCASC
Velocidad máxima media en intervalos de 10 minutos(hora)
DESCASC
Precipitaciones diarias en mm
DESCASC
Precipitaciones de 00:00 a 06:00 en mm
DESCASC
Precipitaciones de 06:00 a 12:00 en mm
DESCASC
Precipitaciones de 12:00 a 18:00 en mm
DESCASC
Precipitaciones de 18:00 a 24:00 en mm
DESCASC
05-04-2020 16.6 (18:10) 5.5 (04:40) 11.1 10.28 (13:10) 6.11 (14:00) 0 0 0 0 0
04-04-2020 17.8 (16:20) 4.4 (07:50) 11.1 9.17 (17:20) 5.28 (16:30) 0 0 0 0 0
03-04-2020 15.3 (17:20) 1.9 (07:50) 8.6 6.94 (15:30) 3.06 (15:00) 0 0 0 0 0
02-04-2020 13.2 (16:10) 6.6 (00:00) 9.9 4.44 (16:30) 2.5 (16:30) 1 0.8 0.2 0 0
01-04-2020 9.5 (13:00) 7.2 (00:00) 8.3 9.44 (05:20) 5.83 (05:10) 12.8 0.2 0 8.2 4.4
31-03-2020 8 (18:30) -0.1 (00:00) 3.9 9.17 (18:40) 5.56 (18:40) 23 7.6 5.2 7.4 2.8
30-03-2020 10.4 (14:30) 2.1 (00:00) 6.2 8.06 (09:50) 3.33 (09:30) 0.2 0 0 0 0.2
29-03-2020 19.2 (16:20) 3.9 (00:00) 11.6 8.06 (18:00) 3.33 (17:50) 0 0 0 0 0
28-03-2020 17.1 (16:20) 3.7 (00:00) 10.4 6.11 (12:10) 3.06 (01:20) 0 0 0 0 0
27-03-2020 13.3 (16:30) 0.4 (00:00) 6.9 7.5 (14:10) 3.06 (17:00) 0 0 0 0 0
26-03-2020 15.1 (15:10) 0.3 (00:00) 7.7 13.33 (18:00) 7.22 (17:40) 0 0 0 0 0
25-03-2020 7.1 (00:00) 3.5 (00:00) 5.3 8.06 (07:50) 5 (08:50) 0.8 0.8 0 0 0
24-03-2020 14.1 (14:40) 7.1 (00:00) 10.6 7.5 (02:00) 4.72 (02:00) 5 0 0 0 5
23-03-2020 15.9 (13:50) 7.6 (00:00) 11.7 9.72 (17:20) 5.56 (15:00) 0 0 0 0 0
22-03-2020 15.8 (16:00) 5.6 (07:20) 10.7 5 (18:50) 2.78 (15:50) 0 0 0 0 0
21-03-2020 15.2 (15:40) 4.6 (00:00) 9.9 8.33 (22:40) 3.33 (10:00) 0 0 0 0 0
20-03-2020 14.8 (15:50) 4.3 (00:00) 9.6 7.78 (13:10) 4.44 (13:40) 0 0 0 0 0
19-03-2020 16.5 (15:10) 7.6 (00:00) 12 7.22 (16:10) 3.89 (15:50) 0 0 0 0 0
18-03-2020 14.7 (15:10) 8.4 (00:00) 11.5 3.06 (13:50) 1.94 (06:30) 0 0 0 0 0
17-03-2020 14.6 (14:20) 9.6 (00:00) 12.1 8.89 (00:10) 5.28 (00:20) 0.2 0 0.2 0 0
16-03-2020 12.6 (15:40) 8.1 (00:00) 10.4 14.17 (17:20) 7.78 (16:30) 23.8 14.4 8.6 0.8 0
15-03-2020 17 (14:40) 5.9 (00:00) 11.5 12.22 (21:30) 7.5 (21:30) 1.8 0 0 0 1.8
14-03-2020 16.9 (17:20) 2.9 (00:00) 9.9 6.11 (15:50) 2.5 (03:40) 0 0 0 0 0
13-03-2020 14.1 (16:50) 7.9 (23:59) 11 6.67 (13:00) 4.17 (12:50) 0 0 0 0 0
12-03-2020 22.3 (16:30) 10.5 (00:00) 16.4 6.39 (22:20) 3.61 (10:00) 0 0 0 0 0
11-03-2020 22.2 (16:20) 5.8 (00:00) 14 6.39 (00:10) 2.5 (00:10) 0 0 0 0 0
10-03-2020 19.7 (17:30) 3.4 (00:00) 11.6 8.33 (02:30) 3.89 (02:30) 0 0 0 0 0

Gráficas

Temp. máximas Temp. mínimas Temp. medias Precipitaciones Rachas de viento máximas Velocidades máximas media en intervalos de 10 minutos

Datos horarios

Fecha y hora oficial Temperatura (ºC) Velocidad del viento (km/h) Dirección del viento Racha (km/h) Dirección de racha Precipitación (mm) Presión (hPa) Tendencia (hPa) Humedad (%)
2020-04-08 23:00:00 11.7 8 Este 12 Este 0 958 1 79
2020-04-08 22:00:00 12.2 6 Este 13 Sudeste 0 958.1 1.2 77
2020-04-08 21:00:00 13.5 8 Sudeste 16 Sudeste 0 957.7 1 70
2020-04-08 20:00:00 15.8 10 Sudeste 18 Sudeste 0 957 0 60
2020-04-08 19:00:00 17.8 10 Sudeste 17 Sudeste 0 956.9 -0.8 52
2020-04-08 18:00:00 18.9 8 Sudeste 19 Sudeste 0 956.7 -1.7 45
2020-04-08 17:00:00 19.3 7 Sur 18 Sur 0 957 -1.9 48
2020-04-08 16:00:00 19 7 Sudeste 19 Sudeste 0 957.7 -1.8 47
2020-04-08 15:00:00 18.4 8 Sudeste 20 Sudeste 0 958.4 -1.6 45
2020-04-08 14:00:00 16.5 9 Este 17 Este 0 958.9 -1.1 52
2020-04-08 13:00:00 16.2 7 Sudeste 17 Sudeste 0 959.5 -0.4 61
2020-04-08 12:00:00 14.5 8 Sudeste 13 Sudeste 0 960 0.2 60
2020-04-08 11:00:00 12.1 7 Sudeste 13 Este 0 960 0.5 68
2020-04-08 10:00:00 11.5 7 Sudeste 13 Sudeste 0 959.9 0.4 66
2020-04-08 09:00:00 10.2 4 Este 10 Este 0 959.8 0.5 82
2020-04-08 08:00:00 8.2 6 Este 11 Este 0 959.5 -0.4 89
2020-04-08 07:00:00 7.3 6 Este 18 Este 0 959.5 -0.5 93
2020-04-08 06:00:00 6.9 10 Este 14 Este 0 959.3 -1 93
2020-04-08 05:00:00 7.4 9 Este 14 Este 0 959.9 -1 94
2020-04-08 04:00:00 7.6 12 Este 17 Este 0 960 -1 94
2020-04-08 03:00:00 8 12 Este 18 Este 0 960.3 -0.6 93
2020-04-08 02:00:00 8.4 9 Este 15 Este 0 960.9 0.2 93
2020-04-08 01:00:00 8.6 11 Este 14 Este 0 961 0.3 93
2020-04-08 00:00:00 9.2 9 Este 16 Este 0 960.9 0.7 92
2020-04-07 23:00:00 9.6 8 Este 12 Este 0 960.7 0.8 91
2020-04-07 22:00:00 10.8 6 Este 14 Sudeste 0 960.7 1.2 88
2020-04-07 21:00:00 11.5 8 Este 21 Este 0 960.2 0.9 85
2020-04-07 20:00:00 12.1 11 Este 26 Este 0 959.9 0.3 83
2020-04-07 19:00:00 12.5 16 Este 30 Este 0 959.5 -0.6 82
2020-04-07 18:00:00 13 18 Este 34 Este 0 959.3 -1.1 80
2020-04-07 17:00:00 12.6 18 Este 31 Este 0 959.6 -1 87
2020-04-07 16:00:00 10.9 12 Este 28 Este 0 960.1 -0.4 90
2020-04-07 15:00:00 10.9 15 Este 28 Este 0 960.4 -0.4 91
2020-04-07 14:00:00 9.9 15 Este 26 Este 0.8 960.6 0 96
2020-04-07 13:00:00 9.6 17 Este 30 Este 0.4 960.5 0.4 93
2020-04-07 12:00:00 10 16 Este 25 Este 0.2 960.8 1.1 92
2020-04-07 11:00:00 9.8 11 Este 20 Sudeste 0.6 960.6 1.4 91
2020-04-07 10:00:00 10.6 13 Este 21 Este 0 960.1 1.3 76
2020-04-07 09:00:00 9.6 12 Este 22 Este 0 959.7 1 82
2020-04-07 08:00:00 8.7 12 Este 21 Este 0 959.2 0.3 86
2020-04-07 07:00:00 8.5 9 Este 16 Este 0 958.8 -0.2 88
2020-04-07 06:00:00 8.6 11 Este 20 Este 0 958.7 -0.5 88
2020-04-07 05:00:00 9.1 14 Este 24 Este 0 958.9 -0.9 84
2020-04-07 04:00:00 9.3 13 Este 23 Este 0 959 -0.5 86
2020-04-07 03:00:00 9.6 14 Este 23 Este 0 959.2 0.1 94
2020-04-07 02:00:00 9.9 10 Este 23 Sudeste 0 959.8 1 93
2020-04-07 01:00:00 10.1 15 Sudeste 25 Sudeste 0 959.5 0.6 93
2020-04-07 00:00:00 10.4 16 Este 30 Sudeste 0 959.1 1 93
2020-04-06 23:00:00 11.2 16 Este 26 Este 0 958.8 1.3 92
2020-04-06 22:00:00 11.9 9 Este 17 Este 0 958.9 1.5 87
2020-04-06 21:00:00 12.2 8 Este 14 Nordeste 0 958.1 0.7 82
2020-04-06 20:00:00 12.7 8 Este 16 Este 0 957.5 0.2 80
2020-04-06 19:00:00 13.9 7 Este 11 Sur 0.2 957.4 0 74
2020-04-06 18:00:00 15.2 6 Sudeste 18 Este 0 957.4 -0.3 62
2020-04-06 17:00:00 15.6 12 Sudeste 26 Este 0 957.3 -0.5 53
2020-04-06 16:00:00 15.6 16 Sudeste 26 Sudeste 0 957.4 -0.3 51
2020-04-06 15:00:00 16.1 14 Sudeste 31 Sudeste 0 957.7 0.1 51
2020-04-06 14:00:00 15 14 Sudeste 29 Este 0 957.8 0.7 51
2020-04-06 13:00:00 14.4 17 Sudeste 29 Sudeste 0 957.7 0.9 47
2020-04-06 12:00:00 12.6 17 Sudeste 26 Sudeste 0 957.6 1.3 70
2020-04-06 11:00:00 10.6 17 Sudeste 25 Sudeste 0.2 957.1 1.4 72
2020-04-06 10:00:00 9.2 8 Este 18 Este 0 956.8 1.9 82
2020-04-06 09:00:00 8.2 9 Este 17 Este 0 956.3 1.6 80
2020-04-06 08:00:00 7.5 12 Este 20 Este 0.2 955.7 1.2 82
2020-04-06 07:00:00 8 14 Este 22 Este 0.2 954.9 0 74
2020-04-06 06:00:00 7.9 14 Este 30 Este 0 954.7 0.2 78
2020-04-06 05:00:00 8 19 Este 27 Este 0.2 954.5 -0.2 82
2020-04-06 04:00:00 8.7 14 Sudeste 30 Este 0 954.9 -0.2 83
2020-04-06 03:00:00 8.6 15 Este 22 Este 0 954.5 -0.3 88
2020-04-06 02:00:00 8.3 13 Este 27 Este 0 954.7 0.4 90
2020-04-06 01:00:00 8.8 12 Este 22 Este 0 955.1 1 91
2020-04-06 00:00:00 8.9 13 Este 26 Este 0 954.8 1.8 90
2020-04-05 23:00:00 9.7 15 Este 24 Sudeste 0 954.3 1.5 87
2020-04-05 22:00:00 10.4 11 Sudeste 18 Sudeste 0 954.1 1.5 83
2020-04-05 21:00:00 11.7 10 Este 18 Sudeste 0 953 0.2 74
2020-04-05 20:00:00 14 12 Sudeste 23 Sudeste 0 952.8 -0.7 63
2020-04-05 19:00:00 16 16 Sudeste 26 Este 0 952.6 -1.5 53
2020-04-05 18:00:00 16.4 15 Sudeste 25 Sudeste 0 952.8 -1.6 55
2020-04-05 17:00:00 15.5 16 Sudeste 28 Sudeste 0 953.5 -1.1 57
2020-04-05 16:00:00 15 12 Sudeste 25 Sudeste 0 954.1 -0.8 54
2020-04-05 15:00:00 15.4 18 Sudeste 31 Sudeste 0 954.4 -1 49
2020-04-05 14:00:00 15 22 Sudeste 37 Sudeste 0 954.6 -0.7 51
2020-04-05 13:00:00 14 20 Este 32 Sur 0 954.9 -0.4 55
2020-04-05 12:00:00 13.3 21 Sudeste 33 Sudeste 0 955.4 0.5 57
2020-04-05 11:00:00 12.9 21 Este 32 Este 0 955.3 0.7 57
2020-04-05 10:00:00 11.4 13 Este 22 Este 0 955.3 1.3 61
2020-04-05 09:00:00 8.7 9 Este 14 Nordeste 0 954.9 1.2 68
2020-04-05 08:00:00 6 9 Este 16 Este 0 954.6 0.6 73
2020-04-05 07:00:00 5.7 10 Este 17 Este 0 954 -0.3 74
2020-04-05 06:00:00 6.1 10 Este 19 Este 0 953.7 -1.1 73
2020-04-05 05:00:00 5.8 11 Este 17 Este 0 954 -1 76
2020-04-05 04:00:00 6.3 11 Este 20 Este 0 954.3 -0.5 76
2020-04-05 03:00:00 6.6 12 Este 24 Este 0 954.8 0.2 77
2020-04-05 02:00:00 7.2 15 Este 27 Este 0 955 0.5 76
2020-04-05 01:00:00 8 17 Este 29 Este 0 954.8 1 75
2020-04-05 00:00:00 8.2 14 Este 28 Este 0 954.6 1.3 78
2020-04-04 23:00:00 8.9 15 Este 27 Este 0 954.5 1.8 81
2020-04-04 22:00:00 9.9 17 Este 27 Este 0 953.8 1.3 78
2020-04-04 21:00:00 11.6 14 Sudeste 23 Sudeste 0 953.3 0.9 68
2020-04-04 20:00:00 13.7 14 Sudeste 27 Sudeste 0 952.7 0.2 61
2020-04-04 19:00:00 16.3 15 Sudeste 29 Sudeste 0 952.5 -0.4 52
2020-04-04 18:00:00 17.1 18 Sudeste 33 Sudeste 0 952.4 -1.2 48
2020-04-04 17:00:00 17.3 18 Sudeste 32 Sudeste 0 952.5 -1.4 44
2020-04-04 16:00:00 17.6 15 Sudeste 31 Sudeste 0 952.9 -1.4 45
2020-04-04 15:00:00 16.9 13 Sudeste 24 Sudeste 0 953.6 -0.9 50
2020-04-04 14:00:00 16.4 14 Sudeste 27 Sudeste 0 953.9 -0.5 51
2020-04-04 13:00:00 15.5 14 Sudeste 26 Sudeste 0 954.3 0.5 52
2020-04-04 12:00:00 14.5 14 Sudeste 23 Sudeste 0 954.5 1 61
2020-04-04 11:00:00 12.9 14 Sudeste 22 Sudeste 0 954.4 1.2 69
2020-04-04 10:00:00 10.5 12 Sudeste 18 Este 0 953.8 1.1 79
2020-04-04 09:00:00 8 7 Este 10 Este 0 953.5 0.9 84
2020-04-04 08:00:00 4.8 7 Este 12 Sudeste 0 953.2 0.3 95
2020-04-04 07:00:00 4.7 10 Este 13 Este 0 952.7 -0.2 94
2020-04-04 06:00:00 5.1 8 Este 12 Este 0 952.6 -0.4 91
2020-04-04 05:00:00 5.8 11 Este 13 Este 0 952.9 0.1 90
2020-04-04 04:00:00 6.5 8 Este 13 Este 0 952.9 0.4 88
2020-04-04 03:00:00 6.7 8 Este 12 Este 0 953 0.7 87
2020-04-04 02:00:00 7 7 Este 11 Nordeste 0 952.8 0.8 85
2020-04-04 01:00:00 7.2 8 Nordeste 12 Nordeste 0 952.5 1 85
2020-04-04 00:00:00 7.3 4 Nordeste 6 Sudoeste 0 952.3 1.3 84
2020-04-03 23:00:00 8.4 3 Sudoeste 6 Oeste 0 952 1.2 80
2020-04-03 22:00:00 8.9 2 Sudoeste 5 Noroeste 0 951.5 0.9 78
2020-04-03 21:00:00 10.7 2 Noroeste 8 Oeste 0 951 0.5 72
2020-04-03 20:00:00 12.9 3 Oeste 14 Oeste 0 950.8 0.2 64
2020-04-03 19:00:00 14.9 7 Oeste 17 Sudoeste 0 950.6 -0.3 55
2020-04-03 18:00:00 15.2 8 Oeste 19 Sudoeste 0 950.5 -0.8 54
2020-04-03 17:00:00 15.1 10 Oeste 22 Sudoeste 0 950.6 -0.9 57
2020-04-03 16:00:00 14.8 10 Oeste 25 Sudoeste 0 950.9 -1 57
2020-04-03 15:00:00 13.9 11 Sudoeste 24 Sudoeste 0 951.3 -0.8 60
2020-04-03 14:00:00 13.1 8 Sudoeste 17 Oeste 0 951.5 -0.3 65
2020-04-03 13:00:00 11.6 5 Oeste 13 Oeste 0 951.9 0.8 66
2020-04-03 12:00:00 9.4 5 Noroeste 12 Oeste 0 952.1 1.4 77
2020-04-03 11:00:00 6.9 5 Oeste 12 Noroeste 0 951.8 1.8 85
2020-04-03 10:00:00 4.8 6 Oeste 12 Noroeste 0 951.1 1.7 89
2020-04-03 09:00:00 4.1 8 Oeste 12 Oeste 0 950.7 1.7 90
2020-04-03 08:00:00 2 6 Oeste 11 Noroeste 0 950 1.2 94
2020-04-03 07:00:00 2.2 5 Oeste 11 Oeste 0 949.4 0.6 93
2020-04-03 06:00:00 2.6 5 Oeste 11 Noroeste 0 949 0.1 94
2020-04-03 05:00:00 3.4 7 Oeste 12 Oeste 0 948.8 -0.1 94
2020-04-03 04:00:00 4.5 6 Oeste 10 Oeste 0 948.8 0 97
2020-04-03 03:00:00 5.3 6 Oeste 10 Sudoeste 0 948.9 0.1 96
2020-04-03 02:00:00 7.1 4 Oeste 9 Sudoeste 0 948.9 0.8 99
2020-04-03 01:00:00 7.7 3 Oeste 12 Nordeste 0 948.8 1 97
2020-04-03 00:00:00 8.2 8 Este 12 Este 0 948.8 1.8 99
2020-04-02 23:00:00 8.3 4 Este 9 Este 0 948.1 1.3 95
2020-04-02 22:00:00 9.4 2 Sur 5 Sudoeste 0 947.8 1.1 90
2020-04-02 21:00:00 10.6 3 Sur 9 Sur 0 947 0.5 87
2020-04-02 20:00:00 11.5 4 Sudeste 9 Sur 0 946.8 0.2 88
2020-04-02 19:00:00 12.4 3 Sudoeste 12 Sur 0 946.7 -0.3 80
2020-04-02 18:00:00 12.8 4 Sudoeste 14 Oeste 0 946.5 -0.8 74
2020-04-02 17:00:00 12.7 6 Oeste 16 Oeste 0 946.6 -1 73
2020-04-02 16:00:00 13 6 Oeste 15 Sudoeste 0 947 -0.9 76
2020-04-02 15:00:00 12.1 7 Oeste 13 Oeste 0 947.3 -0.5 78
2020-04-02 14:00:00 10.5 6 Oeste 12 Sudoeste 0 947.6 0 87
2020-04-02 13:00:00 9.5 5 Oeste 12 Oeste 0 947.9 0.8 90
2020-04-02 12:00:00 8.7 5 Oeste 15 Sudoeste 0 947.8 1.1 96
2020-04-02 11:00:00 8.3 5 Oeste 14 Oeste 0 947.6 1.1 98
2020-04-02 10:00:00 7.3 5 Oeste 14 Sudoeste 0.2 947.1 0.8 100
2020-04-02 09:00:00 6.9 6 Oeste 12 Sudoeste 0 946.7 0.4 100
2020-04-02 08:00:00 6.8 4 Sudoeste 8 Oeste 0 946.5 -0.1 100
2020-04-02 07:00:00 6.7 3 Noroeste 5 Norte 0 946.3 -0.7 100
2020-04-02 06:00:00 6.9 4 Noroeste 6 Noroeste 0 946.3 -1.3 100
2020-04-02 05:00:00 7 4 Oeste 5 Oeste 0 946.6 -1.4 100
2020-04-02 04:00:00 7 4 Noroeste 8 Noroeste 0.2 947 -1.3 100
2020-04-02 03:00:00 7.2 4 Oeste 8 Sudoeste 0.4 947.6 -0.9 100
2020-04-02 02:00:00 7.2 3 Noroeste 6 Noroeste 0.2 948 -0.5 100
2020-04-02 01:00:00 7.3 3 Noroeste 6 Noroeste 0 948.3 -0.1 100
2020-04-02 00:00:00 7.5 3 Noroeste 7 Noroeste 0.2 948.5 0.5 100
2020-04-01 23:00:00 7.6 3 Norte 5 Noroeste 0.4 948.5 0.8 100
2020-04-01 22:00:00 7.6 2 Norte 5 Nordeste 0.6 948.4 0.9 99
2020-04-01 21:00:00 8.1 3 Este 5 Este 1 948 0.4 98
2020-04-01 20:00:00 8.6 2 Este 4 Este 1 947.7 -0.3 98
2020-04-01 19:00:00 8.9 4 Este 8 Nordeste 1.2 947.5 -0.9 95
2020-04-01 18:00:00 9 4 Nordeste 8 Nordeste 0.6 947.6 -1.1 98
2020-04-01 17:00:00 9 3 Sur 9 Sur 5.8 948 -0.9 96
2020-04-01 16:00:00 9 3 Noroeste 6 Norte 1 948.4 -0.5 98
2020-04-01 15:00:00 9 3 Noroeste 5 Oeste 0.2 948.7 -0.3 97
2020-04-01 14:00:00 9.5 3 Sudoeste 8 Sudeste 0.6 948.9 0.1 95
2020-04-01 13:00:00 9.4 5 Sur 12 Este 0 948.9 0.3 92
2020-04-01 12:00:00 9.1 9 Este 20 Este 0 949 0.6 90
2020-04-01 11:00:00 9.1 13 Este 22 Este 0 948.8 0.7 90
2020-04-01 10:00:00 8.6 10 Este 21 Este 0 948.6 0.6 91
2020-04-01 09:00:00 8.1 12 Este 24 Este 0 948.4 0.2 93
2020-04-01 08:00:00 7.9 14 Este 26 Este 0 948.1 -0.1 94
2020-04-01 07:00:00 7.8 15 Este 31 Este 0 948 -0.8 94
2020-04-01 06:00:00 8 17 Este 34 Este 0 948.2 -1.1 90
2020-04-01 05:00:00 8 17 Este 29 Este 0 948.2 -1 89
2020-04-01 04:00:00 7.6 14 Este 24 Este 0.2 948.8 -0.6 92
2020-04-01 03:00:00 7.6 12 Este 24 Este 0 949.3 -0.2 92
2020-04-01 02:00:00 7.7 14 Este 24 Este 0 949.2 -0.3 92
2020-04-01 01:00:00 7.4 13 Este 27 Este 0 949.4 0.1 94
2020-04-01 00:00:00 7.2 15 Este 32 Este 0 949.5 0.8 95
2020-03-31 23:00:00 7.2 16 Este 28 Este 0 949.5 1.3 98
2020-03-31 22:00:00 7.4 14 Este 27 Este 0.6 949.3 1.5 99
2020-03-31 21:00:00 7.4 16 Este 28 Este 1 948.7 1.1 99
2020-03-31 20:00:00 7.7 14 Este 30 Este 0.4 948.2 0.5 98
2020-03-31 19:00:00 7.9 19 Este 33 Este 0.8 947.8 -0.1 96
2020-03-31 18:00:00 7.8 16 Este 28 Este 1 947.6 -0.6 96
2020-03-31 17:00:00 7.2 6 Este 11 Este 1.4 947.7 -0.5 100
2020-03-31 16:00:00 5.9 5 Sudeste 10 Este 2.2 947.9 -0.3 100
2020-03-31 15:00:00 5 4 Sudoeste 7 Sudoeste 1 948.2 0.1 99
2020-03-31 14:00:00 5.2 3 Sudeste 6 Noroeste 0.6 948.2 0.3 100
2020-03-31 13:00:00 2.6 4 Norte 10 Oeste 1.2 948.2 0.6 100
2020-03-31 12:00:00 1.8 5 Noroeste 9 Noroeste 0.4 948.1 0.6 100
2020-03-31 11:00:00 1.2 4 Noroeste 7 Oeste 0.8 947.9 0.6 100
2020-03-31 10:00:00 0.7 4 Noroeste 6 Noroeste 0.6 947.6 0.3 100
2020-03-31 09:00:00 1 0 Calma 9 Este 0.8 947.5 0.2 100
2020-03-31 08:00:00 0.4 4 Este 6 Este 0.8 947.3 -0.4 100
2020-03-31 07:00:00 0.2 4 Nordeste 8 Nordeste 1.8 947.3 -0.7 100
2020-03-31 06:00:00 -0.1 5 Noroeste 7 Norte 2.6 947.3 -1.4 100
2020-03-31 05:00:00 0 4 Oeste 8 Oeste 1.8 947.7 -1.3 100
2020-03-31 04:00:00 0.1 4 Noroeste 8 Noroeste 1.6 948 -1.3 99
2020-03-31 03:00:00 0.7 4 Noroeste 5 Noroeste 0.8 948.7 -1.1 97
2020-03-31 02:00:00 1.4 0 Calma 5 Este 0.6 949 -1 96
2020-03-31 01:00:00 1.7 3 Este 6 Este 0.2 949.3 -0.5 95
2020-03-31 00:00:00 2.1 3 Este 8 Este 0.2 949.8 0.3 91
2020-03-30 23:00:00 2.8 4 Sudeste 12 Sudoeste 0 950 1.3 85
2020-03-30 22:00:00 4.4 8 Sur 16 Sudeste 0 949.8 1.5 65
2020-03-30 21:00:00 5.1 9 Sur 14 Sur 0 949.5 1.2 60
2020-03-30 20:00:00 6 3 Sudoeste 14 Oeste 0 948.7 0.5 58
2020-03-30 19:00:00 6.8 8 Sudoeste 19 Oeste 0 948.3 0 53
2020-03-30 18:00:00 8.5 5 Oeste 21 Sudoeste 0 948.3 -0.3 48
2020-03-30 17:00:00 8.6 8 Oeste 21 Sudoeste 0 948.2 -0.6 45
2020-03-30 16:00:00 8.7 5 Oeste 12 Sudoeste 0 948.3 -0.7 39
2020-03-30 15:00:00 8.8 5 Oeste 18 Sudoeste 0 948.6 -0.6 37
2020-03-30 14:00:00 9 6 Oeste 21 Oeste 0 948.8 -0.5 39
2020-03-30 13:00:00 7.3 8 Oeste 22 Oeste 0 949 0.4 46
2020-03-30 12:00:00 5.6 9 Oeste 25 Noroeste 0 949.2 0.9 52
2020-03-30 11:00:00 4.2 10 Oeste 28 Noroeste 0 949.3 1.5 54
2020-03-30 10:00:00 3.2 9 Oeste 29 Oeste 0 948.6 1.2 63
2020-03-30 09:00:00 3 7 Oeste 23 Oeste 0 948.3 0.8 72
2020-03-30 08:00:00 2.8 6 Oeste 22 Oeste 0 947.8 0.1 75
2020-03-30 07:00:00 2.6 6 Oeste 22 Oeste 0 947.4 -0.4 79
2020-03-30 06:00:00 3.1 8 Oeste 21 Oeste 0 947.5 -0.5 79
2020-03-30 05:00:00 4.9 9 Oeste 26 Oeste 0 947.7 -0.2 76
2020-03-30 04:00:00 5.6 8 Oeste 20 Oeste 0 947.8 -0.4 78
2020-03-30 03:00:00 6.2 5 Oeste 15 Oeste 0 948 -0.4 79
2020-03-30 02:00:00 6.3 7 Oeste 15 Oeste 0 947.9 -0.3 81
2020-03-30 01:00:00 6.8 6 Oeste 17 Noroeste 0 948.2 0 80
2020-03-30 00:00:00 6.8 7 Oeste 20 Sudoeste 0 948.4 0.6 79
2020-03-29 23:00:00 7.4 8 Oeste 20 Oeste 0 948.2 0.6 76
2020-03-29 22:00:00 8.6 8 Oeste 20 Oeste 0 948.2 0.8 69
2020-03-29 21:00:00 9.9 6 Oeste 21 Oeste 0 947.8 0.4 63
2020-03-29 20:00:00 13 8 Oeste 23 Oeste 0 947.6 -0.3 55
2020-03-29 19:00:00 16.1 9 Oeste 27 Oeste 0 947.4 -1 50
2020-03-29 18:00:00 17.6 9 Oeste 29 Noroeste 0 947.4 -1.7 42
2020-03-29 17:00:00 18.7 10 Oeste 27 Oeste 0 947.9 -2.1 38
2020-03-29 16:00:00 18.7 10 Oeste 27 Oeste 0 948.4 -2.3 39
2020-03-29 15:00:00 18.1 7 Oeste 23 Oeste 0 949.1 -2.1 41
2020-03-29 14:00:00 16.4 10 Oeste 24 Sudoeste 0 950 -1.3 47
2020-03-29 13:00:00 14.1 9 Oeste 19 Oeste 0 950.7 -0.6 57
2020-03-29 12:00:00 11.7 8 Oeste 19 Oeste 0 951.2 0 64
2020-03-29 11:00:00 8.3 7 Oeste 17 Oeste 0 951.3 0.2 79
2020-03-29 10:00:00 5.8 8 Oeste 17 Oeste 0 951.3 0.2 84
2020-03-29 09:00:00 4.4 6 Oeste 15 Oeste 0 951.2 0 87
2020-03-29 08:00:00 3.9 8 Oeste 17 Oeste 0 951.1 -0.3 89
2020-03-29 07:00:00 5.1 7 Oeste 14 Noroeste 0 951.1 -0.6 82
2020-03-29 06:00:00 5.7 6 Noroeste 10 Noroeste 0 951.2 -1.1 80
2020-03-29 05:00:00 5.3 6 Oeste 12 Oeste 0 951.4 -1.1 82
2020-03-29 03:00:00 6.8 6 Oeste 9 Oeste 0 952.3 -0.3 74
2020-03-29 01:00:00 7.4 4 Sudoeste 8 Sur 0 952.5 -0.2 70
2020-03-29 00:00:00 7.5 4 Sudoeste 6 Nordeste 0 952.7 0.2 71
2020-03-28 23:00:00 8.1 2 Sudoeste 6 Oeste 0 952.6 0.6 67
2020-03-28 22:00:00 8.9 2 Oeste 10 Noroeste 0 952.7 1.1 63
2020-03-28 21:00:00 10.1 5 Oeste 17 Sudoeste 0 952.5 1.2 58
2020-03-28 20:00:00 11.9 5 Oeste 11 Oeste 0 952 0.9 51
2020-03-28 19:00:00 13.9 3 Oeste 12 Oeste 0 951.6 0.1 49
2020-03-28 18:00:00 16.1 5 Oeste 17 Oeste 0 951.3 -0.5 39
2020-03-28 17:00:00 16.8 8 Oeste 22 Sudoeste 0 951.1 -1.2 37
2020-03-28 16:00:00 16.8 6 Oeste 20 Oeste 0 951.5 -1.2 40
2020-03-28 15:00:00 16.7 9 Oeste 22 Sudoeste 0 951.8 -1.2 42
2020-03-28 14:00:00 16 10 Sudoeste 21 Oeste 0 952.3 -0.6 46
2020-03-28 13:00:00 15 8 Oeste 22 Sudoeste 0 952.7 -0.2 47
2020-03-28 12:00:00 14 8 Oeste 19 Sudoeste 0 953 0.6 50
2020-03-28 11:00:00 12.5 8 Oeste 17 Oeste 0 952.9 0.8 60
2020-03-28 10:00:00 10.5 5 Oeste 11 Sudoeste 0 952.9 1 66
2020-03-28 09:00:00 8.7 4 Sudoeste 9 Sudoeste 0 952.4 0.9 66
2020-03-28 08:00:00 7 3 Oeste 6 Norte 0 952.1 0.7 73
2020-03-28 07:00:00 4.9 4 Noroeste 6 Noroeste 0 951.9 0.6 80
2020-03-28 06:00:00 4.2 3 Noroeste 8 Nordeste 0 951.5 0 83
2020-03-28 05:00:00 5.2 6 Nordeste 9 Nordeste 0 951.4 -0.1 79
2020-03-28 04:00:00 5.3 7 Nordeste 10 Nordeste 0 951.3 0.3 80
2020-03-28 03:00:00 5.1 8 Nordeste 12 Este 0 951.5 0.6 80
2020-03-28 02:00:00 4.4 9 Este 16 Sudeste 0 951.5 0.8 82
2020-03-28 01:00:00 4.8 3 Norte 8 Nordeste 0 951 0.7 78
2020-03-28 00:00:00 4.8 5 Nordeste 7 Nordeste 0 950.9 1.1 74
2020-03-27 23:00:00 5.9 2 Oeste 7 Noroeste 0 950.7 1.5 70
2020-03-27 22:00:00 5.7 3 Noroeste 6 Noroeste 0 950.3 1.7 72
2020-03-27 21:00:00 6.8 3 Noroeste 7 Oeste 0 949.8 1.7 70
2020-03-27 20:00:00 8.1 3 Oeste 11 Oeste 0 949.2 1.3 65
2020-03-27 19:00:00 10.1 7 Sudoeste 17 Oeste 0 948.6 0.6 57
2020-03-27 18:00:00 12.2 9 Oeste 17 Oeste 0 948.1 0 49
2020-03-27 17:00:00 12.7 11 Oeste 23 Oeste 0 947.9 -0.5 48
2020-03-27 16:00:00 13.1 9 Oeste 22 Oeste 0 948 -0.8 46
2020-03-27 15:00:00 12.5 8 Oeste 27 Sudoeste 0 948.1 -1.1 49
2020-03-27 14:00:00 11.9 7 Sudoeste 21 Oeste 0 948.4 -1 52
2020-03-27 13:00:00 11.5 8 Oeste 20 Oeste 0 948.8 -0.4 54
2020-03-27 12:00:00 10 7 Oeste 17 Oeste 0 949.2 0.2 61
2020-03-27 11:00:00 9 7 Oeste 17 Sudoeste 0 949.4 0.6 66
2020-03-27 10:00:00 7.3 6 Oeste 13 Sudoeste 0 949.2 0.9 74
2020-03-27 09:00:00 5.8 4 Oeste 9 Oeste 0 949 1.2 75
2020-03-27 08:00:00 3.4 4 Noroeste 8 Noroeste 0 948.8 1.4 81
2020-03-27 07:00:00 1 4 Oeste 6 Sudoeste 0 948.3 0.9 91
2020-03-27 06:00:00 1.4 3 Noroeste 9 Noroeste 0 947.8 0.1 89
2020-03-27 05:00:00 0.5 3 Norte 5 Nordeste 0 947.4 -0.2 94
2020-03-27 04:00:00 0.8 4 Sudeste 8 Sudeste 0 947.4 -0.1 96
2020-03-27 03:00:00 1 6 Sudeste 9 Este 0 947.7 0.1 96
2020-03-27 02:00:00 1.6 7 Este 11 Sudeste 0 947.6 -0.2 92
2020-03-27 01:00:00 2.5 6 Nordeste 11 Este 0 947.5 -0.1 89
2020-03-27 00:00:00 3.9 6 Este 16 Este 0 947.6 0.5 87
2020-03-26 23:00:00 4.1 6 Este 12 Este 0 947.8 1.8 89
2020-03-26 22:00:00 4.4 4 Este 17 Este 0 947.6 2.7 86
2020-03-26 21:00:00 4.6 12 Sudeste 23 Este 0 947.1 3.6 85
2020-03-26 20:00:00 4.9 15 Sudeste 33 Sudeste 0 946 3.6 80
2020-03-26 19:00:00 6.3 21 Sudeste 38 Sudeste 0 944.9 3 78
2020-03-26 18:00:00 7.7 24 Sudeste 48 Sur 0 943.5 1.7 72
2020-03-26 17:00:00 11.3 8 Sur 19 Oeste 0 942.4 0.3 28
2020-03-26 16:00:00 11.7 6 Oeste 22 Sudoeste 0 941.9 -0.1 35
2020-03-26 15:00:00 -- 6 Oeste 16 Sudoeste 0 941.8 -0.4 28
2020-03-26 14:00:00 12.7 8 Norte 18 Norte 0 942.1 -0.2 30
2020-03-26 13:00:00 12 7 Norte 22 Norte 0 942 -0.4 37
2020-03-26 12:00:00 10.2 10 Noroeste 28 Norte 0 942.2 -0.1 40
2020-03-26 11:00:00 9.8 14 Noroeste 33 Norte 0 942.3 -0.2 45
2020-03-26 10:00:00 8.4 15 Norte 33 Norte 0 942.4 -0.4 55
2020-03-26 09:00:00 5.9 9 Noroeste 24 Noroeste 0 942.3 -0.8 80
2020-03-26 08:00:00 2.6 7 Noroeste 14 Noroeste 0 942.5 -1.1 96
2020-03-26 07:00:00 0.6 2 Oeste 8 Norte 0 942.8 -1.6 97
2020-03-26 06:00:00 1.2 4 Oeste 11 Oeste 0 943.1 -2.2 97
2020-03-26 05:00:00 1.9 5 Oeste 13 Oeste 0 943.6 -2.8 97
2020-03-26 04:00:00 2 5 Noroeste 14 Norte 0 944.4 -2.7 98
2020-03-26 03:00:00 2.9 4 Oeste 12 Noroeste 0 945.3 -2.4 97
2020-03-26 02:00:00 3.4 3 Noroeste 8 Norte 0 946.4 -1.6 93
2020-03-26 01:00:00 4.4 2 Norte 6 Norte 0 947.1 -1.4 90
2020-03-26 00:00:00 4.1 2 Noroeste 5 Nordeste 0 947.7 -0.9 90
2020-03-25 23:00:00 3.8 3 Este 6 Este 0 948 -0.7 93
2020-03-25 22:00:00 3.9 0 Calma 6 Este 0 948.5 -0.3 91
2020-03-25 21:00:00 4.5 5 Nordeste 7 Este 0 948.6 -0.5 90
2020-03-25 20:00:00 5.3 5 Este 7 Este 0 948.7 -0.9 87
2020-03-25 19:00:00 5.6 4 Sudeste 8 Este 0 948.8 -1.4 82
2020-03-25 18:00:00 6 4 Sudeste 9 Sudeste 0 949.1 -1.7 81
2020-03-25 17:00:00 5.8 5 Sudeste 11 Sudeste 0 949.6 -1.9 81
2020-03-25 16:00:00 6 6 Sudeste 14 Este 0 950.2 -1.7 79
2020-03-25 15:00:00 5.6 8 Sudeste 19 Este 0 950.8 -1.3 80
2020-03-25 14:00:00 5.2 11 Sudeste 20 Sudeste 0 951.5 -0.8 82
2020-03-25 13:00:00 4.9 14 Sudeste 26 Sudeste 0 951.9 -0.3 83
2020-03-25 12:00:00 4.6 17 Este 26 Sudeste 0 952.1 0.2 89
2020-03-25 11:00:00 3.9 16 Sudeste 24 Sudeste 0 952.3 0.4 94
2020-03-25 10:00:00 3.6 17 Sudeste 25 Sudeste 0 952.2 0.7 96
2020-03-25 09:00:00 3.7 16 Este 26 Este 0 951.9 0.6 97
2020-03-25 08:00:00 4 15 Sudeste 29 Sudeste 0 951.9 0.5 96
2020-03-25 07:00:00 4.7 12 Este 21 Este 0 951.5 -0.3 98
2020-03-25 06:00:00 5.1 7 Este 17 Este 0.4 951.3 -0.9 99
2020-03-25 05:00:00 5.3 9 Este 15 Nordeste 0 951.4 -1.1 100
2020-03-25 04:00:00 5.6 7 Este 17 Este 0 951.8 -0.9 99
2020-03-25 03:00:00 6 9 Sudeste 20 Sudeste 0.2 952.2 -0.6 99
2020-03-25 02:00:00 6.5 12 Sudeste 23 Sudeste 0.2 952.5 -0.5 99
2020-03-25 01:00:00 6.8 12 Sudeste 21 Sudeste 0 952.7 -0.2 98
2020-03-25 00:00:00 7.1 11 Sudeste 20 Sudeste 0.2 952.8 0.4 97
2020-03-24 23:00:00 7.4 12 Este 22 Este 0.2 953 1 98
2020-03-24 22:00:00 8 10 Este 24 Sudeste 0.8 952.9 1.2 95
2020-03-24 21:00:00 9.2 3 Oeste 6 Noroeste 0.6 952.4 1 94
2020-03-24 20:00:00 9.6 4 Oeste 8 Noroeste 1.4 952 0.6 92
2020-03-24 19:00:00 10.8 0 Calma 8 Sur 1.8 951.7 -0.1 89
2020-03-24 18:00:00 12.2 0 Calma 12 Sur 0 951.4 -1 75
2020-03-24 17:00:00 13 5 Sur 14 Sur 0 951.4 -1.7 66
2020-03-24 16:00:00 13.8 6 Sudoeste 14 Sur 0 951.8 -1.8 64
2020-03-24 15:00:00 13.5 7 Sudoeste 19 Sur 0 952.4 -1.9 63
2020-03-24 14:00:00 13.1 7 Sudoeste 19 Sur 0 953.1 -1.4 66
2020-03-24 13:00:00 12.9 5 Sudoeste 11 Sur 0 953.6 -1.1 66
2020-03-24 12:00:00 12.3 5 Sudeste 18 Sudeste 0 954.3 -0.4 68
2020-03-24 11:00:00 12.3 9 Sudeste 19 Sudeste 0 954.5 -0.3 69
2020-03-24 10:00:00 11.8 8 Sudeste 17 Este 0 954.7 0.1 72
2020-03-24 09:00:00 9.7 9 Este 19 Este 0 954.7 0.3 84
2020-03-24 08:00:00 8.1 9 Este 17 Este 0 954.8 0.6 91
2020-03-24 07:00:00 7.2 9 Este 15 Este 0 954.6 0.5 94
2020-03-24 06:00:00 8.2 11 Este 17 Este 0 954.4 0.1 92
2020-03-24 05:00:00 8.4 10 Este 21 Este 0 954.2 -0.3 92
2020-03-24 04:00:00 8.4 13 Este 24 Este 0 954.1 -0.6 91
2020-03-24 03:00:00 8.7 15 Este 26 Sudeste 0 954.3 -0.4 90
2020-03-24 02:00:00 8.9 17 Sudeste 27 Sudeste 0 954.5 -0.4 88
2020-03-24 01:00:00 9.1 12 Sudeste 26 Sudeste 0 954.7 0.2 87
2020-03-24 00:00:00 9.7 13 Este 21 Sudeste 0 954.7 0.5 90
2020-03-23 23:00:00 9.6 6 Este 17 Sudeste 0 954.9 1.1 94
2020-03-23 22:00:00 9.6 9 Este 16 Este 0 954.5 1.1 94
2020-03-23 21:00:00 9.2 7 Este 14 Este 0 954.2 1.5 92
2020-03-23 20:00:00 9.9 9 Sudeste 22 Sudeste 0 953.8 1.5 86
2020-03-23 19:00:00 11.4 13 Sudeste 25 Sudeste 0 953.4 1.1 81
2020-03-23 18:00:00 12.3 15 Sudeste 35 Sudeste 0 952.7 0.4 76
2020-03-23 17:00:00 13.5 18 Sudeste 30 Sudeste 0 952.3 -0.4 72
2020-03-23 16:00:00 11.6 10 Este 30 Este 0 952.3 -1 83
2020-03-23 15:00:00 14.6 20 Sudeste 35 Sudeste 0 952.3 -1.1 67
2020-03-23 14:00:00 13.5 11 Este 32 Sudeste 0 952.7 -0.7 73
2020-03-23 13:00:00 14.5 16 Sudeste 26 Sudeste 0 953.3 0 68
2020-03-23 12:00:00 13.8 16 Sudeste 30 Sudeste 0 953.4 0.5 71
2020-03-23 11:00:00 13 14 Sudeste 24 Este 0 953.4 1.1 73
2020-03-23 10:00:00 11.1 12 Este 19 Este 0 953.3 1.6 78
2020-03-23 09:00:00 8.9 6 Este 10 Este 0 952.9 1.5 89
2020-03-23 08:00:00 8.1 7 Este 10 Este 0 952.3 1 91
2020-03-23 07:00:00 8.3 5 Este 9 Este 0 951.7 0.6 89
2020-03-23 06:00:00 7.9 5 Nordeste 9 Nordeste 0 951.4 0.3 92
2020-03-23 05:00:00 7.6 5 Este 10 Este 0 951.3 0.1 91
2020-03-23 04:00:00 8.7 6 Este 15 Este 0 951.1 -0.2 89
2020-03-23 03:00:00 9.1 10 Este 15 Este 0 951.1 -0.2 90
2020-03-23 02:00:00 9.2 8 Este 13 Este 0 951.2 0.2 91
2020-03-23 01:00:00 8.8 8 Este 14 Este 0 951.3 0.6 92
2020-03-23 00:00:00 8.9 8 Nordeste 13 Nordeste 0 951.3 1.2 92
2020-03-22 23:00:00 8.9 6 Este 9 Este 0 951 1.5 88
2020-03-22 22:00:00 9.6 4 Nordeste 7 Nordeste 0 950.7 2.2 86
2020-03-22 21:00:00 10.2 3 Este 10 Este 0 950.1 2.3 80
2020-03-22 20:00:00 11.1 8 Sudeste 18 Sur 0 949.5 2 78
2020-03-22 19:00:00 12.9 9 Sur 18 Sudeste 0 948.5 0.9 72
2020-03-22 18:00:00 14.2 5 Este 16 Sudeste 0 947.8 -0.2 59
2020-03-22 17:00:00 14.7 9 Este 15 Este 0 947.5 -0.8 57
2020-03-22 16:00:00 15.8 8 Sudeste 17 Sudeste 0 947.6 -1.1 53
2020-03-22 15:00:00 14.8 8 Sudeste 17 Nordeste 0 948 -0.7 54
2020-03-22 14:00:00 14.9 6 Este 17 Sudeste 0 948.3 -0.1 57
2020-03-22 13:00:00 13.6 9 Sudeste 17 Sudeste 0 948.7 0.5 64
2020-03-22 12:00:00 14.2 9 Sudeste 17 Sudeste 0 948.7 0.9 61
2020-03-22 11:00:00 13.4 6 Sudeste 12 Sur 0 948.4 1.1 66
2020-03-22 10:00:00 11 4 Este 9 Este 0 948.2 1.2 77
2020-03-22 09:00:00 9.8 3 Noroeste 6 Este 0 947.8 1 80
2020-03-22 08:00:00 6.5 2 Nordeste 5 Nordeste 0 947.3 0.4 97
2020-03-22 07:00:00 5.7 3 Nordeste 6 Nordeste 0 947 0 93
2020-03-22 06:00:00 6.1 5 Nordeste 6 Nordeste 0 946.8 -0.6 91
2020-03-22 05:00:00 6.9 4 Este 12 Este 0 946.9 -0.7 88
2020-03-22 04:00:00 7.4 8 Este 13 Este 0 947 -0.9 89
2020-03-22 03:00:00 7.7 6 Este 12 Este 0 947.4 -0.5 88
2020-03-22 02:00:00 7.7 8 Este 12 Este 0 947.6 -0.3 86
2020-03-22 01:00:00 7.4 9 Este 12 Este 0 947.9 0.2 84
2020-03-22 00:00:00 7 9 Este 13 Este 0 947.9 0.5 81
2020-03-21 23:00:00 7.3 12 Este 30 Sudeste 0 947.9 0.9 75
2020-03-21 22:00:00 7.9 8 Nordeste 13 Nordeste 0 947.7 1 72
2020-03-21 21:00:00 8.7 8 Nordeste 12 Nordeste 0 947.4 0.9 68
2020-03-21 20:00:00 9.6 6 Este 7 Este 0 947 0.4 59
2020-03-21 19:00:00 11.9 4 Sudeste 10 Sur 0 946.7 -0.4 53
2020-03-21 18:00:00 13.4 5 Sur 15 Sur 0 946.5 -1 48
2020-03-21 17:00:00 14.4 8 Sudeste 17 Sudeste 0 946.6 -1.5 48
2020-03-21 16:00:00 15 8 Sur 18 Sudeste 0 947.1 -1.7 48
2020-03-21 15:00:00 14.9 9 Sur 19 Sur 0 947.5 -2 46
2020-03-21 14:00:00 14.9 8 Sur 20 Sudeste 0 948.1 -1.7 51
2020-03-21 13:00:00 13.9 9 Sudeste 19 Sudeste 0 948.8 -1.2 54
2020-03-21 12:00:00 13.2 8 Sudeste 19 Sudeste 0 949.5 -0.4 54
2020-03-21 11:00:00 11.8 12 Este 19 Este 0 949.8 -0.2 61
2020-03-21 10:00:00 10.6 12 Sudeste 17 Sudeste 0 950 0 66
2020-03-21 09:00:00 8.4 6 Este 13 Este 0 949.9 -0.3 77
2020-03-21 08:00:00 5.7 7 Este 10 Este 0 950 -0.5 88
2020-03-21 07:00:00 4.9 8 Este 12 Este 0 950 -0.9 88
2020-03-21 06:00:00 5.1 8 Este 12 Este 0 950.2 -0.8 90
2020-03-21 05:00:00 5.4 9 Este 13 Este 0 950.5 -0.7 94
2020-03-21 04:00:00 5.4 7 Este 15 Este 0 950.9 -0.8 92
2020-03-21 03:00:00 5.4 9 Este 13 Este 0 951 -1.2 94
2020-03-21 02:00:00 5.8 7 Este 13 Este 0 951.2 -1.2 93
2020-03-21 01:00:00 6.1 9 Este 14 Este 0 951.7 -0.9 92
2020-03-21 00:00:00 6.4 8 Este 15 Este 0 952.2 -0.2 91
2020-03-20 23:00:00 6.8 8 Este 12 Este 0 952.4 0.2 89
2020-03-20 22:00:00 7.5 9 Este 11 Este 0 952.6 0.3 86
2020-03-20 21:00:00 8.9 8 Sudeste 15 Sudeste 0 952.4 0.2 80
2020-03-20 20:00:00 9.9 7 Este 9 Este 0 952.2 -0.2 75
2020-03-20 19:00:00 11.8 6 Sudeste 19 Sudeste 0 952.3 -0.4 71
2020-03-20 18:00:00 13.4 10 Sudeste 19 Sudeste 0 952.2 -0.8 62
2020-03-20 17:00:00 14 13 Sudeste 26 Sudeste 0 952.4 -1 58
2020-03-20 16:00:00 14.7 15 Sudeste 28 Sudeste 0 952.7 -1.3 52
2020-03-20 15:00:00 14.5 15 Sudeste 27 Este 0 953 -1.5 58
2020-03-20 14:00:00 14.3 14 Sudeste 28 Sudeste 0 953.4 -1.3 60
2020-03-20 13:00:00 13.7 14 Sudeste 27 Sudeste 0 954 -0.7 63
2020-03-20 12:00:00 12.6 13 Sudeste 22 Sudeste 0 954.5 -0.1 69
2020-03-20 11:00:00 11.2 13 Este 24 Este 0 954.7 0.7 74
2020-03-20 10:00:00 9.5 14 Este 21 Este 0 954.7 0.9 83
2020-03-20 09:00:00 7.7 12 Sudeste 19 Sudeste 0 954.6 0.7 90
2020-03-20 08:00:00 5.2 12 Este 18 Este 0 954 0 98
2020-03-20 07:00:00 4.3 10 Este 14 Este 0 953.8 -0.3 99
2020-03-20 06:00:00 4.4 10 Este 16 Este 0 953.9 -0.4 98
2020-03-20 05:00:00 4.8 10 Este 14 Este 0 954 -0.7 97
2020-03-20 04:00:00 5.4 9 Este 15 Este 0 954.1 -0.7 95
2020-03-20 03:00:00 6.1 10 Este 17 Este 0 954.3 -0.9 95
2020-03-20 02:00:00 6.8 11 Este 18 Este 0 954.7 -0.6 94
2020-03-20 01:00:00 7 10 Este 15 Este 0 954.8 -0.6 92
2020-03-20 00:00:00 7.6 10 Este 15 Este 0 955.2 0 91
2020-03-19 23:00:00 8.3 10 Este 17 Este 0 955.3 0.3 90
2020-03-19 22:00:00 9.2 8 Este 15 Sudeste 0 955.4 0.7 88
2020-03-19 21:00:00 10.2 8 Este 15 Sudeste 0 955.2 0.5 87
2020-03-19 20:00:00 10.9 7 Sudeste 13 Sudeste 0 955 0 82
2020-03-19 19:00:00 12.7 8 Sudeste 13 Sudeste 0 954.7 -0.7 76
2020-03-19 18:00:00 14.2 8 Sudeste 20 Sudeste 0 954.7 -1.1 67
2020-03-19 17:00:00 15.3 11 Sudeste 26 Sudeste 0 955 -1.6 60
2020-03-19 16:00:00 15.9 13 Sudeste 23 Sudeste 0 955.4 -2 57
2020-03-19 15:00:00 16.4 12 Sudeste 24 Sudeste 0 955.8 -2.1 61
2020-03-19 14:00:00 15.7 12 Sudeste 22 Sur 0 956.6 -1.8 62
2020-03-19 13:00:00 15.7 7 Sur 21 Sur 0 957.4 -1 73
2020-03-19 12:00:00 13.5 6 Sudeste 13 Este 0 957.9 0 80
2020-03-19 11:00:00 12 6 Sudeste 13 Sudeste 0 958.4 0.5 91
2020-03-19 10:00:00 9.7 8 Sudeste 14 Este 0 958.4 0.5 100
2020-03-19 09:00:00 8.9 8 Este 13 Este 0 957.9 -0.1 100
2020-03-19 08:00:00 8.1 7 Este 11 Este 0 957.9 0 98
2020-03-19 07:00:00 8.6 5 Este 10 Este 0 957.9 0 96
2020-03-19 06:00:00 8.1 6 Nordeste 9 Nordeste 0 958 -0.4 95
2020-03-19 05:00:00 8.1 5 Nordeste 7 Nordeste 0 957.9 -1.1 99
2020-03-19 04:00:00 8.1 4 Nordeste 6 Nordeste 0 957.9 -1.5 97
2020-03-19 03:00:00 8.4 4 Nordeste 5 Nordeste 0 958.4 -1.3 96
2020-03-19 02:00:00 9.2 2 Norte 4 Norte 0 959 -1 95
2020-03-19 01:00:00 9 0 Calma 4 Nordeste 0 959.4 -0.8 96
2020-03-19 00:00:00 9.3 3 Nordeste 5 Nordeste 0 959.7 -0.3 95
2020-03-18 23:00:00 9.8 0 Calma 6 Nordeste 0 960 0.1 93
2020-03-18 22:00:00 10.1 5 Nordeste 6 Nordeste 0 960.2 0.5 90
2020-03-18 21:00:00 10.9 3 Este 5 Sudeste 0 960 0.3 88
2020-03-18 20:00:00 11.8 3 Sur 5 Sur 0 959.9 0.1 85
2020-03-18 19:00:00 12.7 0 Calma 4 Sudoeste 0 959.7 -0.6 81
2020-03-18 18:00:00 13.7 2 Sudoeste 6 Oeste 0 959.7 -0.8 79
2020-03-18 17:00:00 14.2 4 Sudoeste 7 Sudoeste 0 959.8 -1.4 75
2020-03-18 16:00:00 14.6 4 Sudoeste 9 Oeste 0 960.3 -1.6 75
2020-03-18 15:00:00 14.6 3 Oeste 9 Sudoeste 0 960.5 -1.9 76
2020-03-18 14:00:00 14.2 4 Oeste 11 Sudoeste 0 961.2 -1.4 76
2020-03-18 13:00:00 13.8 4 Sudoeste 9 Oeste 0 961.9 -0.8 82
2020-03-18 12:00:00 12.9 4 Sudoeste 8 Oeste 0 962.4 -0.1 85
2020-03-18 11:00:00 11.8 3 Sudeste 6 Sudeste 0 962.6 0.3 83
2020-03-18 10:00:00 10.9 2 Sur 4 Sur 0 962.7 0.5 87
2020-03-18 09:00:00 9.5 0 Calma 5 Norte 0 962.5 0.2 94
2020-03-18 08:00:00 8.5 2 Norte 8 Este 0 962.3 -0.2 92
2020-03-18 07:00:00 8.6 6 Este 9 Este 0 962.2 -0.2 90
2020-03-18 06:00:00 8.9 6 Nordeste 9 Nordeste 0 962.3 -0.5 90
2020-03-18 05:00:00 8.5 5 Este 7 Este 0 962.5 -0.6 90
2020-03-18 04:00:00 9 4 Nordeste 8 Nordeste 0 962.4 -0.9 90
2020-03-18 03:00:00 9.4 4 Nordeste 8 Nordeste 0 962.8 -0.9 89
2020-03-18 02:00:00 9.7 6 Nordeste 9 Nordeste 0 963.1 -1 89
2020-03-18 01:00:00 10 5 Nordeste 8 Nordeste 0 963.3 -0.7 89
2020-03-18 00:00:00 9.7 5 Nordeste 8 Nordeste 0 963.7 0 90
2020-03-17 23:00:00 9.9 4 Nordeste 6 Nordeste 0 964.1 0.8 89
2020-03-17 22:00:00 10.6 3 Norte 8 Nordeste 0 964 1.2 88
2020-03-17 21:00:00 10.7 5 Este 6 Nordeste 0 963.7 1.2 86
2020-03-17 20:00:00 11.7 4 Este 6 Sur 0 963.3 0.9 82
2020-03-17 19:00:00 13.1 5 Sur 10 Sudeste 0 962.8 0.3 78
2020-03-17 18:00:00 13.9 7 Sudeste 13 Sudeste 0 962.5 0 76
2020-03-17 17:00:00 14.4 7 Sudeste 15 Sudeste 0 962.4 -0.1 74
2020-03-17 16:00:00 14 12 Sudeste 25 Este 0 962.5 -0.2 73
2020-03-17 15:00:00 14.5 14 Sudeste 27 Este 0 962.5 0 70
2020-03-17 14:00:00 13.7 11 Este 21 Sudeste 0 962.5 0.4 77
2020-03-17 13:00:00 13.8 15 Sudeste 23 Sudeste 0 962.7 1.4 78
2020-03-17 12:00:00 13 7 Sudeste 13 Sudeste 0.2 962.5 1.9 84
2020-03-17 11:00:00 12.4 6 Sudeste 10 Sudeste 0 962.1 2.2 84
2020-03-17 10:00:00 11.6 7 Sudeste 20 Sudeste 0 961.3 2.3 81
2020-03-17 09:00:00 11.3 11 Este 18 Este 0 960.6 2.3 80
2020-03-17 08:00:00 10.8 9 Este 20 Sudeste 0 959.9 2.2 80
2020-03-17 07:00:00 10.7 15 Sudeste 20 Sudeste 0 959 1.8 80
2020-03-17 06:00:00 10.3 10 Este 17 Este 0 958.3 0.9 82
2020-03-17 05:00:00 10.7 12 Este 23 Este 0 957.7 0.6 80
2020-03-17 04:00:00 11.1 13 Este 28 Este 0 957.2 0.1 79
2020-03-17 03:00:00 11.1 14 Este 28 Este 0 957.4 1 77
2020-03-17 02:00:00 11.2 15 Este 28 Este 0 957.1 1.3 76
2020-03-17 01:00:00 11 17 Este 32 Este 0 957.1 2.5 76
2020-03-17 00:00:00 11.2 21 Este 40 Este 0 956.4 3.3 76
2020-03-16 23:00:00 11.1 22 Este 37 Este 0 955.8 3.3 75
2020-03-16 22:00:00 10.8 22 Este 38 Este 0 954.6 2.8 76
2020-03-16 21:00:00 11.1 21 Este 38 Este 0 953.1 1.9 75
2020-03-16 20:00:00 10.6 18 Este 39 Este 0 952.5 2.1 80
2020-03-16 19:00:00 10.1 19 Este 41 Nordeste 0 951.8 2.1 87
2020-03-16 18:00:00 9.6 23 Este 51 Este 0.8 951.2 1.6 91
2020-03-16 17:00:00 11.6 28 Este 51 Este 0 950.4 0.7 72
2020-03-16 16:00:00 12.2 27 Este 49 Este 0 949.7 0.1 70
2020-03-16 15:00:00 11.3 24 Este 46 Este 0 949.6 -0.4 75
2020-03-16 14:00:00 10.2 25 Este 45 Este 0 949.7 0.4 80
2020-03-16 13:00:00 9.7 27 Este 44 Este 0 949.6 1.2 85
2020-03-16 12:00:00 8.8 21 Este 47 Este 0 950 2.2 92
2020-03-16 11:00:00 8.4 22 Este 44 Este 0 949.3 2.1 99
2020-03-16 10:00:00 8.3 22 Este 36 Este 0.4 948.4 1.3 98
2020-03-16 09:00:00 8.2 18 Este 39 Este 1.4 947.8 1.2 99
2020-03-16 08:00:00 8.1 19 Este 35 Este 3.6 947.2 0.2 99
2020-03-16 07:00:00 8.4 23 Este 37 Este 3.2 947.1 -0.1 100
2020-03-16 06:00:00 8.5 21 Sudeste 33 Sudeste 4 946.6 -0.7 100
2020-03-16 05:00:00 8.9 15 Sudeste 28 Sudeste 3.2 947 -0.6 100
2020-03-16 04:00:00 9.4 15 Sudeste 35 Sudeste 3.4 947.2 -0.3 100
2020-03-16 03:00:00 9.5 19 Sudeste 32 Sudeste 1.2 947.3 -0.7 100
2020-03-16 02:00:00 9.4 17 Sudeste 39 Sudeste 1.8 947.6 -0.8 100
2020-03-16 01:00:00 9.3 24 Sudeste 39 Este 0.8 947.5 -0.2 99
2020-03-16 00:00:00 9.2 22 Este 40 Este 0 948 0.5 98
2020-03-15 23:00:00 9.2 22 Este 40 Este 1 948.4 0.8 97
2020-03-15 22:00:00 9.8 21 Este 44 Sudeste 0 947.7 0.3 94
2020-03-15 21:00:00 10 24 Este 43 Sudeste 0.2 947.5 0.2 95
2020-03-15 20:00:00 10.7 21 Este 37 Este 0.6 947.6 -0.4 93
2020-03-15 19:00:00 11.6 21 Este 37 Este 0 947.4 -0.9 92
2020-03-15 18:00:00 12.7 21 Sudeste 40 Sudeste 0 947.3 -1.3 86
2020-03-15 17:00:00 13.8 19 Sudeste 36 Sudeste 0 948 -1.9 79
2020-03-15 16:00:00 15 22 Sudeste 37 Este 0 948.3 -2.8 65
2020-03-15 15:00:00 16.8 22 Sudeste 36 Este 0 948.6 -3.2 58
2020-03-15 14:00:00 16.1 22 Sudeste 35 Este 0 949.9 -2.4 63
2020-03-15 13:00:00 14.5 20 Sudeste 33 Sudeste 0 951.1 -1.8 65
2020-03-15 12:00:00 14.7 18 Sudeste 28 Sudeste 0 951.8 -1 68
2020-03-15 11:00:00 13.4 17 Este 27 Este 0 952.3 -0.1 75
2020-03-15 10:00:00 11 11 Sudeste 17 Sudeste 0 952.9 0.6 82
2020-03-15 09:00:00 8.8 9 Sudeste 15 Este 0 952.8 0.3 86
2020-03-15 08:00:00 6.4 10 Este 16 Este 0 952.4 -0.3 91
2020-03-15 07:00:00 6.2 12 Este 20 Este 0 952.3 -0.8 90
2020-03-15 06:00:00 6.2 10 Este 17 Este 0 952.5 -1.2 89
2020-03-15 05:00:00 6.3 12 Este 19 Este 0 952.7 -1.3 89
2020-03-15 04:00:00 6.8 11 Este 19 Este 0 953.1 -1.2 85
2020-03-15 03:00:00 6.9 10 Este 17 Este 0 953.7 -0.9 88
2020-03-15 02:00:00 7.9 10 Este 14 Este 0 954 -0.7 87
2020-03-15 01:00:00 8.1 8 Este 13 Este 0 954.3 -0.2 86
2020-03-15 00:00:00 8.2 8 Este 13 Nordeste 0 954.6 0.5 88
2020-03-14 23:00:00 8.1 7 Nordeste 11 Nordeste 0 954.7 0.8 87
2020-03-14 22:00:00 8.2 7 Este 12 Este 0 954.5 1.1 74
2020-03-14 21:00:00 10.1 2 Sudoeste 8 Oeste 0 954.1 0.9 62
2020-03-14 20:00:00 11.3 4 Sudoeste 8 Sudoeste 0 953.9 0.6 59
2020-03-14 19:00:00 13.5 4 Sudoeste 14 Oeste 0 953.4 -0.3 56
2020-03-14 18:00:00 16 5 Oeste 14 Oeste 0 953.2 -1 48
2020-03-14 17:00:00 16.8 5 Oeste 17 Noroeste 0 953.3 -1.7 43
2020-03-14 16:00:00 16.6 9 Oeste 22 Sudoeste 0 953.7 -1.8 47
2020-03-14 15:00:00 15.9 7 Oeste 17 Sudoeste 0 954.2 -1.6 54
2020-03-14 14:00:00 14.8 8 Sudoeste 17 Sudoeste 0 955 -0.9 61
2020-03-14 13:00:00 13.2 4 Sudoeste 15 Noroeste 0 955.5 0 70
2020-03-14 12:00:00 11.1 6 Oeste 13 Oeste 0 955.8 0.8 78
2020-03-14 11:00:00 8.3 7 Oeste 14 Oeste 0 955.9 1.4 89
2020-03-14 10:00:00 5.5 6 Oeste 18 Oeste 0 955.5 1.5 96
2020-03-14 09:00:00 3.8 7 Oeste 16 Oeste 0 955 1.4 100
2020-03-14 08:00:00 3.1 7 Oeste 14 Oeste 0 954.5 1.1 99
2020-03-14 07:00:00 3 6 Oeste 15 Oeste 0 954 0.5 98
2020-03-14 06:00:00 4 8 Oeste 14 Oeste 0 953.6 -0.1 98
2020-03-14 05:00:00 4.3 7 Oeste 14 Oeste 0 953.4 -0.8 97
2020-03-14 04:00:00 4.6 7 Oeste 14 Sudoeste 0 953.5 -1.1 96
2020-03-14 03:00:00 5.8 9 Oeste 14 Oeste 0 953.7 -0.8 95
2020-03-14 02:00:00 6.7 5 Oeste 10 Noroeste 0 954.2 -0.5 94
2020-03-14 01:00:00 7.2 6 Noroeste 14 Oeste 0 954.6 0.4 93
2020-03-14 00:00:00 7.9 6 Noroeste 15 Oeste 0 954.5 0.2 92
2020-03-13 23:00:00 8.9 5 Oeste 10 Oeste 0 954.7 0.6 91
2020-03-13 22:00:00 10.4 5 Oeste 8 Oeste 0 954.2 0.4 90
2020-03-13 21:00:00 11.7 4 Noroeste 8 Norte 0 954.3 0.7 88
2020-03-13 20:00:00 12.4 3 Noroeste 9 Noroeste 0 954.1 0.4 86
2020-03-13 19:00:00 12.9 3 Norte 9 Norte 0 953.8 -0.2 85
2020-03-13 18:00:00 13.5 3 Oeste 8 Noroeste 0 953.6 -0.7 81
2020-03-13 17:00:00 14 3 Oeste 9 Oeste 0 953.7 -1.2 74
2020-03-13 16:00:00 13.7 5 Sudeste 14 Sudeste 0 954 -1.3 78
2020-03-13 15:00:00 13.8 8 Sudeste 17 Sudeste 0 954.3 -1.3 80
2020-03-13 14:00:00 13.3 7 Sudeste 22 Sudeste 0 954.9 -0.6 83
2020-03-13 13:00:00 11.5 15 Sudeste 24 Sudeste 0 955.3 -0.1 93
2020-03-13 12:00:00 10.2 12 Este 18 Sudeste 0 955.6 0.6 97
2020-03-13 11:00:00 9.9 12 Este 19 Este 0 955.5 0.9 98
2020-03-13 10:00:00 9.5 7 Este 14 Este 0 955.4 1.7 98
2020-03-13 09:00:00 9.2 4 Este 8 Este 0 955 1.7 97
2020-03-13 08:00:00 8.3 3 Oeste 7 Noroeste 0 954.6 1.4 96
2020-03-13 07:00:00 8.2 0 Calma 14 Oeste 0 953.7 0.4 96
2020-03-13 06:00:00 8.6 7 Sur 15 Sudoeste 0 953.3 -0.3 96
2020-03-13 05:00:00 8.6 4 Noroeste 10 Oeste 0 953.2 -0.5 96
2020-03-13 04:00:00 8.5 5 Oeste 17 Noroeste 0 953.3 -0.5 96
2020-03-13 03:00:00 8.6 9 Noroeste 15 Noroeste 0 953.6 0.2 95
2020-03-13 02:00:00 9.9 8 Oeste 14 Oeste 0 953.7 -0.1 90
2020-03-13 01:00:00 10.6 6 Oeste 17 Oeste 0 953.8 0.3 89
2020-03-13 00:00:00 12.2 6 Oeste 15 Noroeste 0 953.4 0.2 87
2020-03-12 23:00:00 12.4 8 Oeste 23 Oeste 0 953.8 1 84
2020-03-12 22:00:00 13.5 8 Sudoeste 17 Sudoeste 0 953.5 0.9 84
2020-03-12 21:00:00 15.2 7 Oeste 16 Oeste 0 953.2 1 76
2020-03-12 20:00:00 17.5 7 Oeste 14 Oeste 0 952.8 0.6 68
2020-03-12 19:00:00 19.4 4 Oeste 9 Sur 0 952.6 -0.2 65
2020-03-12 18:00:00 21.6 5 Sudeste 10 Sudeste 0 952.2 -1.5 53
2020-03-12 17:00:00 22.1 6 Este 12 Sudeste 0 952.2 -2.6 52
2020-03-12 16:00:00 21.8 8 Este 12 Sudeste 0 952.8 -2.8 52
2020-03-12 15:00:00 20.8 5 Este 12 Sudeste 0 953.7 -2.2 54
2020-03-12 14:00:00 18.7 5 Noroeste 9 Noroeste 0 954.8 -1.4 67
2020-03-12 13:00:00 19.1 5 Sudoeste 9 Sudoeste 0 955.6 -0.5 66
2020-03-12 12:00:00 19.8 5 Sudeste 11 Sudeste 0 955.9 0 54
2020-03-12 11:00:00 18.3 8 Sudeste 18 Este 0 956.2 0.4 59
2020-03-12 10:00:00 16.7 13 Este 18 Este 0 956.1 0.7 62
2020-03-12 09:00:00 12.8 11 Este 18 Nordeste 0 955.9 0.3 66
2020-03-12 08:00:00 10.7 8 Este 13 Este 0 955.8 0.3 69
2020-03-12 07:00:00 11.4 10 Este 11 Este 0 955.4 -0.2 67
2020-03-12 06:00:00 10.7 7 Este 9 Este 0 955.6 -0.5 73
2020-03-12 05:00:00 11.3 0 Calma 6 Sudoeste 0 955.5 -1.2 71
2020-03-12 04:00:00 12.4 4 Sudoeste 6 Nordeste 0 955.6 -1.3 70
2020-03-12 03:00:00 13.3 4 Nordeste 12 Nordeste 0 956.1 -1.1 65
2020-03-12 02:00:00 13.2 7 Nordeste 9 Nordeste 0 956.7 -0.6 65
2020-03-12 01:00:00 13.6 6 Este 10 Este 0 956.9 -0.2 65
2020-03-12 00:00:00 14.4 7 Nordeste 12 Nordeste 0 957.2 0.2 64
2020-03-11 23:00:00 14.6 8 Nordeste 12 Nordeste 0 957.3 0.5 67
2020-03-11 22:00:00 14.3 8 Este 10 Este 0 957.1 0.6 71
2020-03-11 21:00:00 14.4 7 Este 13 Este 0 957 0.7 70
2020-03-11 20:00:00 15.9 8 Sudeste 12 Sudeste 0 956.8 0.6 61
2020-03-11 19:00:00 18.2 0 Calma 4 Sudoeste 0 956.5 0 53
2020-03-11 18:00:00 21.1 3 Oeste 12 Sudoeste 0 956.3 -0.6 44
2020-03-11 17:00:00 21.8 4 Oeste 14 Sudoeste 0 956.2 -1.3 41
2020-03-11 16:00:00 21.8 6 Oeste 15 Noroeste 0 956.5 -1.8 48
2020-03-11 15:00:00 21 6 Oeste 15 Sudoeste 0 956.9 -1.7 53
2020-03-11 14:00:00 19.9 5 Oeste 15 Oeste 0 957.5 -1.3 54
2020-03-11 13:00:00 18.3 6 Oeste 13 Sudoeste 0 958.3 -0.3 57
2020-03-11 12:00:00 15.9 6 Oeste 16 Oeste 0 958.6 0.5 59
2020-03-11 11:00:00 13.5 6 Oeste 14 Sudoeste 0 958.8 1 61
2020-03-11 10:00:00 11.4 4 Sudoeste 9 Sudoeste 0 958.6 0.8 66
2020-03-11 09:00:00 10.3 3 Nordeste 9 Oeste 0 958.1 0.7 70
2020-03-11 08:00:00 7.5 6 Noroeste 9 Noroeste 0 957.8 0.9 68
2020-03-11 07:00:00 6 2 Norte 10 Este 0 957.8 0.9 73
2020-03-11 06:00:00 7.1 5 Sudeste 11 Este 0 957.4 0 60
2020-03-11 05:00:00 9.2 5 Oeste 11 Oeste 0 956.9 -1 52
2020-03-11 04:00:00 10.2 6 Oeste 14 Oeste 0 956.9 -1 48
2020-03-11 03:00:00 10.4 4 Oeste 12 Noroeste 0 957.4 -0.5 43
2020-03-11 02:00:00 11.1 5 Oeste 17 Oeste 0 957.9 -0.3 39
2020-03-11 01:00:00 12.3 7 Oeste 23 Noroeste 0 957.9 -0.2 34
2020-03-11 00:00:00 13.1 8 Noroeste 19 Norte 0 957.9 -0.1 27
2020-03-10 23:00:00 13.4 8 Noroeste 20 Noroeste 0 958.2 0.4 27
2020-03-10 22:00:00 13.6 6 Noroeste 19 Norte 0 958.1 0.7 37
2020-03-10 21:00:00 14.8 8 Noroeste 18 Oeste 0 958 1.2 32
2020-03-10 20:00:00 14.5 6 Oeste 14 Oeste 0 957.8 1 44
2020-03-10 19:00:00 15.1 3 Sudoeste 17 Oeste 0 957.4 0.4 54
2020-03-10 18:00:00 18.7 7 Oeste 23 Oeste 0 956.8 -0.5 41
2020-03-10 17:00:00 19.5 4 Oeste 11 Oeste 0 956.8 -0.9 47
2020-03-10 16:00:00 18.7 4 Noroeste 8 Noroeste 0 957 -1.6 44
2020-03-10 15:00:00 17.7 4 Noroeste 9 Sur 0 957.3 -1.7 44
2020-03-10 14:00:00 16.4 3 Sur 10 Sur 0 957.7 -1.4 51
2020-03-10 13:00:00 13.8 5 Noroeste 10 Norte 0 958.6 -0.2 55
2020-03-10 12:00:00 10.9 5 Nordeste 13 Este 0 959 0.6 64
2020-03-10 11:00:00 8.5 6 Este 11 Sudeste 0 959.1 1.3 76
2020-03-10 10:00:00 6.6 7 Este 13 Este 0 958.8 1.5 82
2020-03-10 09:00:00 5.2 8 Este 14 Este 0 958.4 1.5 84
2020-03-10 08:00:00 3.7 9 Este 17 Este 0 957.8 1.5 86
2020-03-10 07:00:00 3.5 9 Este 14 Este 0 957.3 1.6 83
2020-03-10 06:00:00 4.3 5 Este 10 Noroeste 0 956.9 0.2 83
2020-03-10 05:00:00 5.4 6 Oeste 21 Oeste 0 956.3 -0.4 79
2020-03-10 04:00:00 5.9 9 Noroeste 25 Noroeste 0 955.7 -1.3 77
2020-03-10 03:00:00 6.4 11 Noroeste 30 Noroeste 0 956.7 -0.4 77
2020-03-10 02:00:00 5.6 12 Oeste 26 Noroeste 0 956.7 -0.6 84
2020-03-10 01:00:00 5.5 9 Oeste 26 Oeste 0 957 0.4 81
2020-03-10 00:00:00 6.6 12 Oeste 28 Oeste 0 957.1 -0.2 69